Time;durP1;ratioP1;P1;durP2;ratioP2;P2;SDS_P1;SDS_P2;PMS_P1;PMS_P2;Temp;Humidity;BMP_temperature;BMP_pressure;BME280_temperature;BME280_humidity;BME280_pressure;Samples;Min_cycle;Max_cycle;Signal;HPM_P1;HPM_P2
2022/12/12 00:00:35;;;;;;;0.30;0.20;;;-1.00;99.90;;;;;;5054856;28;20462;-85
2022/12/12 00:03:02;;;;;;;0.43;0.43;;;-1.10;99.90;;;;;;5054943;28;20557;-85
2022/12/12 00:05:29;;;;;;;0.30;0.30;;;-1.10;99.90;;;;;;5054971;28;20458;-85
2022/12/12 00:07:56;;;;;;;2.20;1.07;;;-1.10;99.90;;;;;;5054535;28;20453;-85
2022/12/12 00:10:22;;;;;;;1.77;1.70;;;-1.10;99.90;;;;;;5054659;28;20949;-85
2022/12/12 00:12:49;;;;;;;1.73;1.63;;;-1.10;99.90;;;;;;5054777;28;20452;-85
2022/12/12 00:15:17;;;;;;;0.30;0.30;;;-1.10;99.90;;;;;;5054837;28;20427;-85
2022/12/12 00:17:44;;;;;;;0.50;0.50;;;-1.10;99.90;;;;;;5054364;28;20450;-84
2022/12/12 00:20:11;;;;;;;0.63;0.63;;;-1.10;99.90;;;;;;5054677;28;20446;-85
2022/12/12 00:22:38;;;;;;;1.10;1.10;;;-1.10;99.90;;;;;;5054644;28;20825;-85
2022/12/12 00:25:06;;;;;;;0.97;0.97;;;-1.10;99.90;;;;;;5054573;28;20460;-84
2022/12/12 00:27:33;;;;;;;0.30;0.30;;;-1.10;99.90;;;;;;5054390;28;20492;-85
2022/12/12 00:30:00;;;;;;;2.47;2.37;;;-1.10;99.90;;;;;;5054407;28;20866;-85
2022/12/12 00:32:29;;;;;;;1.90;0.87;;;-1.20;99.90;;;;;;5054292;28;20470;-84
2022/12/12 00:34:55;;;;;;;0.30;0.30;;;-1.20;99.90;;;;;;5054017;28;20549;-85
2022/12/12 00:37:22;;;;;;;0.37;0.37;;;-1.20;99.90;;;;;;5054426;28;20428;-85
2022/12/12 00:39:49;;;;;;;3.43;1.50;;;-1.20;99.90;;;;;;5054412;28;20457;-85
2022/12/12 00:42:16;;;;;;;0.30;0.20;;;-1.20;99.90;;;;;;5053642;28;20450;-85
2022/12/12 00:44:43;;;;;;;0.40;0.30;;;-1.20;99.90;;;;;;5054279;28;20505;-85
2022/12/12 00:47:10;;;;;;;0.30;0.30;;;-1.20;99.90;;;;;;5053863;28;21005;-85
2022/12/12 00:49:38;;;;;;;0.30;0.30;;;-1.20;99.90;;;;;;5054094;28;20450;-85
2022/12/12 00:52:05;;;;;;;1.03;1.03;;;-1.20;99.90;;;;;;5054270;28;20483;-85
2022/12/12 00:54:31;;;;;;;0.40;0.40;;;-1.30;99.90;;;;;;5054080;28;20823;-85
2022/12/12 00:56:58;;;;;;;4.53;0.60;;;-1.30;99.90;;;;;;5053937;28;20451;-85
2022/12/12 00:59:25;;;;;;;0.30;0.30;;;-1.30;99.90;;;;;;5054269;28;20826;-85
2022/12/12 01:01:52;;;;;;;15.67;1.67;;;-1.40;99.90;;;;;;5053972;28;20555;-85
2022/12/12 01:04:19;;;;;;;0.40;0.40;;;-1.40;99.90;;;;;;5054431;28;20471;-85
2022/12/12 01:06:47;;;;;;;0.30;0.20;;;-1.40;99.90;;;;;;5053912;28;20458;-85
2022/12/12 01:09:13;;;;;;;0.50;0.50;;;-1.50;99.90;;;;;;5053840;28;20446;-85
2022/12/12 01:11:40;;;;;;;0.33;0.33;;;-1.40;99.90;;;;;;5053775;28;20416;-84
2022/12/12 01:14:07;;;;;;;0.60;0.60;;;-1.50;99.90;;;;;;5054008;28;20466;-85
2022/12/12 01:16:34;;;;;;;0.30;0.30;;;-1.50;99.90;;;;;;5054274;28;20775;-84
2022/12/12 01:19:01;;;;;;;0.40;0.40;;;-1.50;99.90;;;;;;5053327;28;20938;-85
2022/12/12 01:21:28;;;;;;;1.40;1.40;;;-1.60;99.90;;;;;;5053653;28;20442;-85
2022/12/12 01:23:56;;;;;;;0.30;0.27;;;-1.70;99.90;;;;;;5053475;28;20433;-85
2022/12/12 01:26:24;;;;;;;0.40;0.40;;;-1.70;99.90;;;;;;5053652;28;20519;-85
2022/12/12 01:28:52;;;;;;;1.47;0.93;;;-1.80;99.90;;;;;;5052925;28;21035;-85
2022/12/12 01:31:19;;;;;;;0.30;0.30;;;-1.80;99.90;;;;;;5053613;28;20829;-85
2022/12/12 01:33:46;;;;;;;0.30;0.30;;;-1.80;99.90;;;;;;5053350;28;20477;-85
2022/12/12 01:36:16;;;;;;;0.60;0.50;;;-1.80;99.90;;;;;;5053462;28;20449;-85
2022/12/12 01:38:44;;;;;;;0.80;0.80;;;-1.90;99.90;;;;;;5053471;28;20792;-85
2022/12/12 01:41:13;;;;;;;0.40;0.40;;;-2.00;99.90;;;;;;5053434;28;20446;-85
2022/12/12 01:43:40;;;;;;;0.57;0.57;;;-2.00;99.90;;;;;;5052933;28;20833;-85
2022/12/12 01:46:32;;;;;;;0.70;0.60;;;-2.10;99.90;;;;;;5052921;28;20436;-85
2022/12/12 01:49:02;;;;;;;1.07;0.97;;;-2.20;99.90;;;;;;5052997;28;20944;-85
2022/12/12 01:51:29;;;;;;;0.30;0.30;;;-2.20;99.90;;;;;;5053565;28;20419;-85
2022/12/12 01:54:02;;;;;;;2.20;2.10;;;-2.20;99.90;;;;;;5053302;28;20470;-85
2022/12/12 01:56:32;;;;;;;1.33;0.90;;;-2.40;99.90;;;;;;5053060;28;20509;-85
2022/12/12 01:59:03;;;;;;;0.30;0.30;;;-2.40;99.90;;;;;;5053239;28;20819;-85
2022/12/12 02:01:31;;;;;;;0.30;0.30;;;-2.50;99.90;;;;;;5053144;28;20426;-85
2022/12/12 02:03:59;;;;;;;0.50;0.50;;;-2.50;99.90;;;;;;5053036;28;20492;-85
2022/12/12 02:06:28;;;;;;;0.30;0.30;;;-2.50;99.90;;;;;;5052851;28;20461;-85
2022/12/12 02:08:59;;;;;;;0.50;0.50;;;-2.50;99.90;;;;;;5053087;28;20485;-85
2022/12/12 02:11:27;;;;;;;0.30;0.30;;;-2.50;99.90;;;;;;5053030;28;20429;-85
2022/12/12 02:13:57;;;;;;;1.00;0.70;;;-2.60;99.90;;;;;;5053052;28;20470;-85
2022/12/12 02:16:34;;;;;;;0.30;0.30;;;-2.60;99.90;;;;;;5053007;28;20465;-85
2022/12/12 02:19:13;;;;;;;0.53;0.50;;;-2.70;99.90;;;;;;5052983;28;20433;-85
2022/12/12 02:21:47;;;;;;;0.93;0.93;;;-2.70;99.90;;;;;;5052764;28;20892;-85
2022/12/12 02:24:42;;;;;;;0.30;0.20;;;-2.70;99.90;;;;;;5053039;28;20448;-85
2022/12/12 02:27:54;;;;;;;0.30;0.20;;;-2.70;99.90;;;;;;5052884;28;20449;-85
2022/12/12 02:30:24;;;;;;;0.30;0.30;;;-2.70;99.90;;;;;;4991353;28;20424;-85
2022/12/12 02:33:13;;;;;;;0.40;0.40;;;-2.60;99.90;;;;;;4991373;28;20457;-85
2022/12/12 02:35:55;;;;;;;0.53;0.53;;;-2.60;99.90;;;;;;5031539;28;20458;-85
2022/12/12 02:38:29;;;;;;;0.40;0.40;;;-2.60;99.90;;;;;;5052649;28;20393;-85
2022/12/12 02:41:05;;;;;;;0.30;0.30;;;-2.60;99.90;;;;;;5054648;28;20484;-85
2022/12/12 02:43:38;;;;;;;0.57;0.57;;;-2.60;99.90;;;;;;5056054;28;20801;-85
2022/12/12 02:46:09;;;;;;;0.40;0.40;;;-2.60;99.90;;;;;;5056448;28;20400;-86
2022/12/12 02:48:42;;;;;;;0.40;0.40;;;-2.60;99.90;;;;;;5056550;28;21012;-86
2022/12/12 02:51:12;;;;;;;0.60;0.57;;;-2.60;99.90;;;;;;5056566;28;20464;-85
2022/12/12 02:53:39;;;;;;;0.30;0.30;;;-2.70;99.90;;;;;;5056361;28;20448;-85
2022/12/12 02:56:28;;;;;;;1.00;0.93;;;-2.80;99.90;;;;;;5055965;28;20456;-85
2022/12/12 02:58:55;;;;;;;0.40;0.40;;;-2.80;99.90;;;;;;5055767;28;20980;-85
2022/12/12 03:01:32;;;;;;;0.53;0.53;;;-2.90;99.90;;;;;;5056227;28;20446;-85
2022/12/12 03:10:01;;;;;;;6.23;2.40;;;-2.90;99.90;;;;;;5056420;28;20829;-86
2022/12/12 03:12:36;;;;;;;0.30;0.20;;;-2.90;99.90;;;;;;5055941;28;20459;-86
2022/12/12 03:15:12;;;;;;;0.30;0.30;;;-2.90;99.90;;;;;;5056068;28;20419;-86
2022/12/12 03:17:44;;;;;;;0.30;0.30;;;-2.90;99.90;;;;;;5056540;28;20435;-86
2022/12/12 03:20:19;;;;;;;2.40;2.30;;;-3.00;99.90;;;;;;5055930;28;20772;-85
2022/12/12 03:22:50;;;;;;;1.43;0.67;;;-3.10;99.90;;;;;;5055903;28;20440;-85
2022/12/12 03:25:23;;;;;;;0.50;0.50;;;-3.10;99.90;;;;;;5056025;28;20430;-86
2022/12/12 03:27:54;;;;;;;0.30;0.30;;;-3.20;99.90;;;;;;5055492;28;20508;-85
2022/12/12 03:30:21;;;;;;;0.40;0.30;;;-3.30;99.90;;;;;;5055388;28;20437;-86
2022/12/12 03:32:53;;;;;;;0.60;0.60;;;-3.30;99.90;;;;;;5055582;28;20812;-86
2022/12/12 03:35:26;;;;;;;0.50;0.50;;;-3.30;99.90;;;;;;5055573;28;20416;-85
2022/12/12 03:37:58;;;;;;;0.40;0.40;;;-3.30;99.90;;;;;;5055677;28;20424;-86
2022/12/12 03:40:31;;;;;;;0.60;0.60;;;-3.20;99.90;;;;;;5055536;28;20435;-86
2022/12/12 03:43:03;;;;;;;1.37;1.13;;;-3.20;99.90;;;;;;5062410;28;20449;-86
2022/12/12 03:45:36;;;;;;;0.70;0.70;;;-3.30;99.90;;;;;;5055502;28;20413;-86
2022/12/12 03:48:10;;;;;;;0.60;0.60;;;-3.30;99.90;;;;;;5055117;28;20953;-86
2022/12/12 03:50:43;;;;;;;0.30;0.30;;;-3.40;99.90;;;;;;5055308;28;20419;-86
2022/12/12 03:53:16;;;;;;;0.30;0.30;;;-3.50;99.90;;;;;;5054176;28;20448;-86
2022/12/12 03:55:48;;;;;;;0.93;0.93;;;-3.50;99.90;;;;;;5055240;28;20434;-86
2022/12/12 03:58:20;;;;;;;0.80;0.80;;;-3.50;99.90;;;;;;5055177;28;20408;-86
2022/12/12 04:00:49;;;;;;;0.30;0.30;;;-3.50;99.90;;;;;;5054729;28;20409;-86
2022/12/12 04:03:23;;;;;;;0.30;0.30;;;-3.50;99.90;;;;;;5055056;28;20459;-86
2022/12/12 04:12:57;;;;;;;0.50;0.50;;;-3.50;99.90;;;;;;5054999;28;20939;-86
2022/12/12 04:14:43;;;;;;;0.30;0.20;;;-3.60;99.90;;;;;;5054472;28;20474;-86
2022/12/12 04:17:14;;;;;;;1.17;1.17;;;-3.60;99.90;;;;;;5054464;28;20412;-86
2022/12/12 04:25:34;;;;;;;1.17;1.17;;;-3.60;99.90;;;;;;5054836;28;20400;-86
2022/12/12 04:28:04;;;;;;;0.30;0.30;;;-3.70;99.90;;;;;;5054259;28;20977;-87
2022/12/12 04:30:34;;;;;;;0.50;0.50;;;-3.60;99.90;;;;;;5054492;28;20439;-86
2022/12/12 04:33:05;;;;;;;0.90;0.90;;;-3.60;99.90;;;;;;5054403;28;20848;-86
2022/12/12 04:35:35;;;;;;;0.30;0.30;;;-3.60;99.90;;;;;;5054501;28;20434;-86
2022/12/12 04:38:06;;;;;;;4.00;1.13;;;-3.70;99.90;;;;;;5054419;28;20456;-86
2022/12/12 04:40:36;;;;;;;0.50;0.50;;;-3.60;99.90;;;;;;5054388;28;20425;-86
2022/12/12 04:43:06;;;;;;;0.30;0.30;;;-3.60;99.90;;;;;;5053884;28;20539;-87
2022/12/12 04:45:35;;;;;;;1.23;0.73;;;-3.60;99.90;;;;;;5054512;28;20454;-86
2022/12/12 04:48:03;;;;;;;0.40;0.30;;;-3.60;99.90;;;;;;5053928;28;20456;-86
2022/12/12 04:50:32;;;;;;;0.30;0.30;;;-3.60;99.90;;;;;;5053902;28;20967;-86
2022/12/12 04:53:07;;;;;;;0.30;0.20;;;-3.60;99.90;;;;;;5054004;28;20460;-86
2022/12/12 04:55:36;;;;;;;0.67;0.67;;;-3.70;99.90;;;;;;5054076;28;20821;-86
2022/12/12 04:58:06;;;;;;;0.30;0.30;;;-3.70;99.90;;;;;;5053954;28;20429;-86
2022/12/12 05:00:39;;;;;;;0.70;0.70;;;-3.70;99.90;;;;;;5054109;28;20421;-86
2022/12/12 05:03:11;;;;;;;0.30;0.30;;;-3.70;99.90;;;;;;5053752;28;20808;-86
2022/12/12 05:05:42;;;;;;;0.30;0.30;;;-3.70;99.90;;;;;;5053229;28;20441;-86
2022/12/12 05:08:16;;;;;;;0.83;0.83;;;-3.70;99.90;;;;;;5054449;28;20469;-86
2022/12/12 05:10:44;;;;;;;0.30;0.30;;;-3.70;99.90;;;;;;5053586;28;20543;-86
2022/12/12 05:13:15;;;;;;;0.30;0.30;;;-3.70;99.90;;;;;;5053770;28;20502;-86
2022/12/12 05:15:42;;;;;;;0.30;0.30;;;-3.70;99.90;;;;;;5053796;28;20406;-86
2022/12/12 05:18:10;;;;;;;0.80;0.80;;;-3.60;99.90;;;;;;5053740;28;20524;-86
2022/12/12 05:20:38;;;;;;;0.30;0.27;;;-3.70;99.90;;;;;;5053805;28;20541;-86
2022/12/12 05:23:05;;;;;;;1.33;1.17;;;-3.70;99.90;;;;;;5053611;28;20473;-86
2022/12/12 05:25:33;;;;;;;0.40;0.40;;;-3.70;99.90;;;;;;5054391;28;20443;-87
2022/12/12 05:28:00;;;;;;;0.40;0.40;;;-3.70;99.90;;;;;;5053476;28;20421;-86
2022/12/12 05:30:27;;;;;;;0.30;0.30;;;-3.70;99.90;;;;;;5053634;28;20429;-86
2022/12/12 05:32:54;;;;;;;0.40;0.30;;;-3.70;99.90;;;;;;5053480;28;20537;-86
2022/12/12 05:35:21;;;;;;;0.30;0.30;;;-3.70;99.90;;;;;;5053318;28;20428;-85
2022/12/12 05:37:48;;;;;;;0.30;0.30;;;-3.70;99.90;;;;;;5053594;28;20421;-86
2022/12/12 05:40:15;;;;;;;0.30;0.30;;;-3.80;99.90;;;;;;5053386;28;20942;-86
2022/12/12 05:42:43;;;;;;;0.37;0.37;;;-3.80;99.90;;;;;;5053106;28;20461;-86
2022/12/12 05:45:13;;;;;;;0.50;0.50;;;-3.70;99.90;;;;;;5053520;28;20457;-86
2022/12/12 05:47:39;;;;;;;0.50;0.50;;;-3.70;99.90;;;;;;5054132;28;20443;-86
2022/12/12 05:50:07;;;;;;;0.30;0.30;;;-3.60;99.90;;;;;;5053274;28;20488;-86
2022/12/12 05:52:34;;;;;;;1.17;1.17;;;-3.50;99.90;;;;;;5053098;28;20964;-86
2022/12/12 05:55:01;;;;;;;1.43;0.90;;;-3.40;99.90;;;;;;5053449;28;20446;-86
2022/12/12 05:57:28;;;;;;;0.50;0.50;;;-3.40;99.90;;;;;;5053390;28;20460;-86
2022/12/12 05:59:56;;;;;;;0.30;0.30;;;-3.40;99.90;;;;;;5053095;28;20424;-86
2022/12/12 06:02:23;;;;;;;0.70;0.70;;;-3.40;99.90;;;;;;5053280;28;20448;-86
2022/12/12 06:04:50;;;;;;;1.40;0.97;;;-3.40;99.90;;;;;;5052915;28;20932;-87
2022/12/12 06:07:17;;;;;;;0.50;0.50;;;-3.40;99.90;;;;;;5053193;28;20796;-87
2022/12/12 06:09:43;;;;;;;0.30;0.30;;;-3.40;99.90;;;;;;5053224;28;20483;-87
2022/12/12 06:12:11;;;;;;;0.30;0.27;;;-3.40;99.90;;;;;;5053320;28;20526;-86
2022/12/12 06:14:38;;;;;;;1.90;0.90;;;-3.30;99.90;;;;;;5053238;28;20421;-86
2022/12/12 06:17:06;;;;;;;0.30;0.30;;;-3.30;99.90;;;;;;5056752;28;20529;-86
2022/12/12 06:19:33;;;;;;;0.47;0.47;;;-3.20;99.90;;;;;;5060164;28;20454;-86
2022/12/12 06:21:59;;;;;;;0.30;0.30;;;-3.30;99.90;;;;;;5057437;28;20454;-86
2022/12/12 06:24:26;;;;;;;0.40;0.40;;;-3.30;99.90;;;;;;5058348;28;20439;-86
2022/12/12 06:26:53;;;;;;;0.30;0.30;;;-3.30;99.90;;;;;;5057246;28;20446;-86
2022/12/12 06:29:20;;;;;;;0.30;0.30;;;-3.20;99.90;;;;;;5056864;28;20457;-86
2022/12/12 06:31:48;;;;;;;0.40;0.40;;;-3.20;99.90;;;;;;5057343;28;20449;-86
2022/12/12 06:34:16;;;;;;;0.33;0.33;;;-3.20;99.90;;;;;;5056897;28;20478;-87
2022/12/12 06:36:43;;;;;;;1.23;1.23;;;-3.20;99.90;;;;;;5056981;28;20452;-86
2022/12/12 06:39:10;;;;;;;0.30;0.30;;;-3.30;99.90;;;;;;5057029;28;20941;-86
2022/12/12 06:41:37;;;;;;;0.40;0.30;;;-3.40;99.90;;;;;;5058767;28;20859;-86
2022/12/12 06:44:04;;;;;;;0.40;0.40;;;-3.30;99.90;;;;;;5057605;28;20492;-86
2022/12/12 06:46:31;;;;;;;0.30;0.20;;;-3.30;99.90;;;;;;5064032;28;20490;-86
2022/12/12 06:48:58;;;;;;;0.40;0.40;;;-3.20;99.90;;;;;;5058384;28;20460;-86
2022/12/12 06:51:30;;;;;;;0.60;0.60;;;-3.20;99.90;;;;;;5057425;28;20446;-86
2022/12/12 06:53:57;;;;;;;0.30;0.30;;;-3.20;99.90;;;;;;5057300;28;20539;-86
2022/12/12 06:56:26;;;;;;;1.70;0.90;;;-3.10;99.90;;;;;;5057401;28;20508;-86
2022/12/12 06:58:54;;;;;;;0.30;0.30;;;-3.20;99.90;;;;;;5056672;28;20912;-86
2022/12/12 07:01:23;;;;;;;0.40;0.40;;;-3.20;99.90;;;;;;5057412;28;20421;-85
2022/12/12 07:03:51;;;;;;;0.30;0.30;;;-3.30;99.90;;;;;;5056974;28;20481;-86
2022/12/12 07:06:20;;;;;;;0.30;0.27;;;-3.30;99.90;;;;;;5057025;28;20446;-85
2022/12/12 07:08:48;;;;;;;0.57;0.57;;;-3.20;99.90;;;;;;5056637;28;20845;-86
2022/12/12 07:11:18;;;;;;;0.30;0.30;;;-3.20;99.90;;;;;;5057461;28;20420;-86
2022/12/12 07:13:45;;;;;;;0.53;0.53;;;-3.20;99.90;;;;;;5056245;28;20445;-85
2022/12/12 07:16:12;;;;;;;0.30;0.30;;;-3.10;99.90;;;;;;5056246;28;20492;-86
2022/12/12 07:18:39;;;;;;;0.40;0.40;;;-3.20;99.90;;;;;;5058976;28;20522;-86
2022/12/12 07:21:07;;;;;;;0.30;0.30;;;-3.20;99.90;;;;;;5060559;28;20424;-85
2022/12/12 07:23:36;;;;;;;0.30;0.30;;;-3.30;99.90;;;;;;5059330;28;20898;-85
2022/12/12 07:26:05;;;;;;;0.30;0.30;;;-3.30;99.90;;;;;;5060056;28;20517;-85
2022/12/12 07:28:32;;;;;;;1.77;1.60;;;-3.20;99.90;;;;;;5061205;28;20447;-86
2022/12/12 07:31:00;;;;;;;0.30;0.30;;;-3.20;99.90;;;;;;5061167;28;20508;-85
2022/12/12 07:33:27;;;;;;;0.30;0.23;;;-3.10;99.90;;;;;;5060290;28;20491;-86
2022/12/12 07:35:57;;;;;;;0.80;0.80;;;-3.10;99.90;;;;;;5059206;28;20454;-86
2022/12/12 07:38:24;;;;;;;0.30;0.20;;;-3.10;99.90;;;;;;5060404;28;20443;-85
2022/12/12 07:40:51;;;;;;;1.17;1.17;;;-2.90;99.90;;;;;;5061279;28;20529;-86
2022/12/12 07:43:19;;;;;;;0.60;0.60;;;-2.90;99.90;;;;;;5058791;28;20481;-84
2022/12/12 07:45:47;;;;;;;0.30;0.30;;;-2.90;99.90;;;;;;5059274;28;20435;-84
2022/12/12 07:48:14;;;;;;;0.50;0.50;;;-2.90;99.90;;;;;;5059069;28;20450;-86
2022/12/12 07:50:42;;;;;;;1.50;1.40;;;-2.90;99.90;;;;;;5059567;28;20461;-83
2022/12/12 07:53:09;;;;;;;0.30;0.30;;;-2.90;99.90;;;;;;5059660;28;20470;-85
2022/12/12 07:55:39;;;;;;;0.30;0.20;;;-2.80;99.90;;;;;;5059671;28;20431;-86
2022/12/12 07:58:06;;;;;;;0.30;0.30;;;-2.80;99.90;;;;;;5060174;28;20435;-86
2022/12/12 08:00:35;;;;;;;0.40;0.40;;;-2.70;99.90;;;;;;5058893;28;20441;-86
2022/12/12 08:03:01;;;;;;;0.30;0.30;;;-2.70;99.90;;;;;;5058990;28;20466;-86
2022/12/12 08:05:29;;;;;;;1.47;1.23;;;-2.60;99.90;;;;;;5058898;28;20454;-86
2022/12/12 08:07:55;;;;;;;0.40;0.40;;;-2.60;99.90;;;;;;5056077;28;20450;-86
2022/12/12 08:10:22;;;;;;;0.93;0.70;;;-2.60;99.90;;;;;;5056253;28;20489;-84
2022/12/12 08:12:49;;;;;;;0.30;0.30;;;-2.60;99.90;;;;;;5055449;28;20470;-84
2022/12/12 08:15:17;;;;;;;0.50;0.50;;;-2.60;99.90;;;;;;5056107;28;20810;-84
2022/12/12 08:17:45;;;;;;;0.60;0.60;;;-2.50;99.90;;;;;;5056139;28;20476;-83
2022/12/12 08:20:12;;;;;;;0.30;0.30;;;-2.50;99.90;;;;;;5058394;28;20909;-84
2022/12/12 08:22:39;;;;;;;0.30;0.30;;;-2.50;99.90;;;;;;5061960;28;20449;-84
2022/12/12 08:25:07;;;;;;;0.30;0.30;;;-2.50;99.90;;;;;;5062108;28;20427;-84
2022/12/12 08:27:33;;;;;;;0.30;0.30;;;-2.50;99.90;;;;;;5061919;28;20981;-83
2022/12/12 08:30:00;;;;;;;0.30;0.30;;;-2.40;99.90;;;;;;5060928;28;20467;-83
2022/12/12 08:32:27;;;;;;;3.50;0.80;;;-2.50;99.90;;;;;;5060784;28;20937;-83
2022/12/12 08:34:58;;;;;;;1.83;1.73;;;-2.70;99.90;;;;;;5061753;28;20432;-84
2022/12/12 08:37:25;;;;;;;0.40;0.40;;;-2.60;99.90;;;;;;5061735;28;20436;-84
2022/12/12 08:39:52;;;;;;;0.70;0.70;;;-2.40;99.90;;;;;;5060275;28;20432;-84
2022/12/12 08:42:19;;;;;;;0.33;0.30;;;-2.30;99.90;;;;;;5058599;28;20450;-83
2022/12/12 08:44:46;;;;;;;0.43;0.43;;;-2.20;99.90;;;;;;5059192;28;20914;-85
2022/12/12 08:47:12;;;;;;;0.90;0.90;;;-2.10;99.90;;;;;;5058090;28;20938;-84
2022/12/12 08:49:39;;;;;;;1.47;0.53;;;-1.90;99.90;;;;;;5061830;28;20457;-84
2022/12/12 08:52:08;;;;;;;1.93;1.03;;;-1.90;99.90;;;;;;5059548;28;20446;-84
2022/12/12 08:54:35;;;;;;;0.30;0.30;;;-1.90;99.90;;;;;;5059769;28;20450;-84
2022/12/12 08:57:02;;;;;;;0.60;0.60;;;-1.90;99.90;;;;;;5060188;28;20421;-84
2022/12/12 08:59:29;;;;;;;0.67;0.67;;;-1.80;99.90;;;;;;5056232;28;20439;-85
2022/12/12 09:01:56;;;;;;;0.30;0.30;;;-1.80;99.90;;;;;;5054441;28;20449;-85
2022/12/12 09:04:23;;;;;;;0.30;0.30;;;-1.70;99.90;;;;;;5054891;28;20462;-84
2022/12/12 09:06:50;;;;;;;1.27;1.17;;;-1.60;99.90;;;;;;5054381;28;20442;-85
2022/12/12 09:09:18;;;;;;;0.30;0.30;;;-1.50;99.90;;;;;;5053975;28;20909;-85
2022/12/12 09:11:45;;;;;;;0.40;0.40;;;-1.40;99.90;;;;;;5054253;28;20452;-85
2022/12/12 09:14:12;;;;;;;0.40;0.40;;;-1.30;99.90;;;;;;5053662;28;20478;-84
2022/12/12 09:16:38;;;;;;;0.30;0.30;;;-1.20;99.90;;;;;;5054427;28;20435;-84
2022/12/12 09:19:05;;;;;;;0.67;0.67;;;-1.20;99.90;;;;;;5054029;28;20453;-84
2022/12/12 09:21:32;;;;;;;0.30;0.30;;;-1.40;99.90;;;;;;5055366;28;20929;-85
2022/12/12 09:23:59;;;;;;;0.30;0.30;;;-1.30;99.90;;;;;;5057490;28;20530;-84
2022/12/12 09:26:27;;;;;;;0.97;0.97;;;-1.30;99.90;;;;;;5057587;28;20432;-84
2022/12/12 09:28:54;;;;;;;0.87;0.87;;;-1.30;99.90;;;;;;5058210;28;20426;-84
2022/12/12 09:31:21;;;;;;;0.60;0.60;;;-1.40;99.90;;;;;;5056925;28;21008;-84
2022/12/12 09:33:48;;;;;;;2.13;2.03;;;-1.30;99.90;;;;;;5057366;28;20485;-84
2022/12/12 09:36:15;;;;;;;0.30;0.30;;;-1.20;99.90;;;;;;5056338;28;20458;-84
2022/12/12 09:38:42;;;;;;;0.33;0.33;;;-1.00;99.90;;;;;;5057273;28;20458;-84
2022/12/12 09:41:14;;;;;;;0.83;0.83;;;-0.90;99.90;;;;;;5058327;28;20826;-84
2022/12/12 09:43:47;;;;;;;2.10;0.93;;;-0.80;99.90;;;;;;5056674;28;20493;-84
2022/12/12 09:46:20;;;;;;;0.30;0.30;;;-0.70;99.90;;;;;;5057425;28;20446;-84
2022/12/12 09:48:47;;;;;;;0.30;0.27;;;-0.60;99.90;;;;;;5061120;28;20801;-84
2022/12/12 09:51:14;;;;;;;0.50;0.50;;;-0.70;99.90;;;;;;5062147;28;21038;-85
2022/12/12 09:53:45;;;;;;;0.70;0.47;;;-0.70;99.90;;;;;;5064590;28;20481;-84
2022/12/12 09:56:18;;;;;;;0.37;0.37;;;-0.60;99.90;;;;;;5063698;28;20426;-85
2022/12/12 09:58:51;;;;;;;0.50;0.50;;;-0.70;99.90;;;;;;5065233;28;20434;-84
2022/12/12 10:01:26;;;;;;;0.63;0.63;;;-0.70;99.90;;;;;;5063275;28;20405;-84
2022/12/12 10:04:07;;;;;;;0.33;0.33;;;-0.80;99.90;;;;;;5063141;28;20474;-83
2022/12/12 10:06:41;;;;;;;4.37;0.90;;;-0.90;99.90;;;;;;5061505;28;20426;-80
2022/12/12 10:09:25;;;;;;;0.33;0.30;;;-0.80;99.90;;;;;;5059925;28;20442;-81
2022/12/12 10:11:53;;;;;;;2.50;0.63;;;-0.80;99.90;;;;;;5060439;28;20439;-81
2022/12/12 10:14:31;;;;;;;0.40;0.40;;;-0.80;99.90;;;;;;5059457;28;20840;-81
2022/12/12 10:16:59;;;;;;;0.83;0.83;;;-0.80;99.90;;;;;;5059753;28;20444;-80
2022/12/12 10:19:29;;;;;;;0.30;0.30;;;-0.80;99.90;;;;;;5060484;28;20428;-80
2022/12/12 10:22:01;;;;;;;0.60;0.40;;;-0.60;99.90;;;;;;5059962;28;20818;-80
2022/12/12 10:24:33;;;;;;;0.30;0.30;;;-0.70;99.90;;;;;;5060257;28;20438;-80
2022/12/12 10:27:01;;;;;;;0.57;0.57;;;-0.70;99.90;;;;;;5060279;28;20434;-80
2022/12/12 10:29:29;;;;;;;0.40;0.40;;;-0.60;99.90;;;;;;5060258;28;20445;-80
2022/12/12 10:32:05;;;;;;;0.50;0.50;;;-0.40;99.90;;;;;;5060310;28;20823;-80
2022/12/12 10:34:45;;;;;;;0.30;0.30;;;-0.20;99.90;;;;;;5059809;28;20529;-79
2022/12/12 10:37:27;;;;;;;0.50;0.50;;;0.10;99.90;;;;;;5060167;28;20505;-79
2022/12/12 10:40:03;;;;;;;0.30;0.30;;;0.20;99.90;;;;;;5059633;28;20441;-79
2022/12/12 10:42:37;;;;;;;0.30;0.30;;;0.30;99.90;;;;;;5059025;28;20519;-79
2022/12/12 10:45:29;;;;;;;0.30;0.30;;;0.40;99.90;;;;;;5061065;28;20434;-81
2022/12/12 10:47:56;;;;;;;0.40;0.30;;;0.50;99.90;;;;;;5060174;28;20438;-84
2022/12/12 10:50:27;;;;;;;0.30;0.27;;;0.40;99.90;;;;;;5060076;28;20464;-82
2022/12/12 10:52:54;;;;;;;0.40;0.40;;;0.40;99.90;;;;;;5059527;28;20474;-79
2022/12/12 10:55:30;;;;;;;0.40;0.40;;;0.50;99.90;;;;;;5058869;28;20446;-79
2022/12/12 10:58:02;;;;;;;0.70;0.70;;;0.60;99.90;;;;;;5059369;28;20445;-83
2022/12/12 11:00:32;;;;;;;0.30;0.30;;;0.40;99.90;;;;;;5059216;28;20434;-82
2022/12/12 11:03:10;;;;;;;1.23;1.13;;;0.20;99.90;;;;;;5056474;28;20474;-82
2022/12/12 11:05:38;;;;;;;0.30;0.20;;;0.00;99.90;;;;;;5055915;28;20853;-82
2022/12/12 11:08:17;;;;;;;2.60;0.93;;;-0.10;99.90;;;;;;5055951;28;20435;-82
2022/12/12 11:10:44;;;;;;;0.30;0.30;;;-0.20;99.90;;;;;;5055947;28;20477;-82
2022/12/12 11:13:15;;;;;;;1.60;1.50;;;-0.30;99.90;;;;;;5055783;28;20470;-82
2022/12/12 11:15:51;;;;;;;0.30;0.30;;;-0.40;99.90;;;;;;5055872;28;20449;-82
2022/12/12 11:18:20;;;;;;;0.53;0.50;;;-0.40;99.90;;;;;;5055984;28;20434;-82
2022/12/12 11:20:49;;;;;;;0.30;0.30;;;-0.50;99.90;;;;;;5055949;28;20508;-82
2022/12/12 11:23:19;;;;;;;0.30;0.30;;;-0.50;99.90;;;;;;5055701;28;20441;-82
2022/12/12 11:25:53;;;;;;;0.30;0.20;;;-0.50;99.90;;;;;;5055539;28;20447;-82
2022/12/12 11:28:24;;;;;;;0.30;0.30;;;-0.40;99.90;;;;;;5055766;28;20435;-82
2022/12/12 11:30:54;;;;;;;0.73;0.63;;;-0.40;99.90;;;;;;5055611;28;20466;-82
2022/12/12 11:33:23;;;;;;;0.50;0.40;;;-0.40;99.90;;;;;;5055700;28;20470;-82
2022/12/12 11:35:55;;;;;;;0.30;0.30;;;-0.50;99.90;;;;;;5055454;28;20450;-82
2022/12/12 11:38:27;;;;;;;0.40;0.30;;;-0.50;99.90;;;;;;5055440;28;20434;-82
2022/12/12 11:41:00;;;;;;;0.30;0.27;;;-0.50;99.90;;;;;;5055484;28;20496;-82
2022/12/12 11:43:28;;;;;;;0.30;0.30;;;-0.50;99.90;;;;;;5054980;28;20544;-82
2022/12/12 11:46:02;;;;;;;0.40;0.30;;;-0.60;99.90;;;;;;5055104;28;20450;-82
2022/12/12 11:48:41;;;;;;;0.30;0.30;;;-0.60;99.90;;;;;;5056414;28;20803;-82
2022/12/12 11:51:08;;;;;;;0.30;0.30;;;-0.60;99.90;;;;;;5055849;28;20981;-82
2022/12/12 11:53:38;;;;;;;1.83;1.07;;;-0.60;99.90;;;;;;5055512;28;20492;-82
2022/12/12 11:56:18;;;;;;;0.40;0.40;;;-0.70;99.90;;;;;;5055766;28;20451;-82
2022/12/12 11:58:53;;;;;;;0.47;0.47;;;-0.70;99.90;;;;;;5055278;28;20782;-82
2022/12/12 12:01:31;;;;;;;0.30;0.27;;;-0.80;99.90;;;;;;5055256;28;20508;-80
2022/12/12 12:04:16;;;;;;;0.40;0.40;;;-0.80;99.90;;;;;;5055091;28;20470;-82
2022/12/12 12:06:58;;;;;;;1.43;1.23;;;-0.90;99.90;;;;;;5055160;28;20526;-82
2022/12/12 12:09:32;;;;;;;0.30;0.30;;;-0.90;99.90;;;;;;5054870;28;20431;-82
2022/12/12 12:12:06;;;;;;;0.30;0.30;;;-0.90;99.90;;;;;;5054872;28;20950;-81
2022/12/12 12:14:55;;;;;;;0.30;0.30;;;-0.90;99.90;;;;;;5054325;28;20412;-82
2022/12/12 12:17:54;;;;;;;0.40;0.40;;;-0.80;99.90;;;;;;5054906;28;20832;-81
2022/12/12 12:20:32;;;;;;;0.40;0.40;;;-0.90;99.90;;;;;;5054907;28;20448;-81
2022/12/12 12:23:07;;;;;;;0.40;0.40;;;-0.90;99.90;;;;;;5054833;28;20531;-81
2022/12/12 12:25:43;;;;;;;0.50;0.50;;;-0.90;99.90;;;;;;5055543;28;20779;-82
2022/12/12 12:28:35;;;;;;;0.73;0.73;;;-0.90;99.90;;;;;;5054759;28;20792;-81
2022/12/12 12:31:10;;;;;;;0.30;0.20;;;-0.90;99.90;;;;;;5054208;28;20474;-82
2022/12/12 12:33:59;;;;;;;0.40;0.40;;;-0.90;99.90;;;;;;5054811;28;20452;-81
2022/12/12 12:36:35;;;;;;;0.30;0.30;;;-0.90;99.90;;;;;;5055224;28;20526;-82
2022/12/12 12:39:09;;;;;;;1.50;1.03;;;-0.90;99.90;;;;;;5055207;28;20874;-82
2022/12/12 12:41:57;;;;;;;0.50;0.50;;;-0.90;99.90;;;;;;5054838;28;20846;-82
2022/12/12 12:44:37;;;;;;;0.50;0.50;;;-0.90;99.90;;;;;;5053959;28;20488;-82
2022/12/12 12:47:17;;;;;;;0.30;0.20;;;-0.90;99.90;;;;;;5054752;28;20405;-82
2022/12/12 12:49:54;;;;;;;0.30;0.20;;;-0.90;99.90;;;;;;5056009;28;20801;-82
2022/12/12 12:52:26;;;;;;;3.03;0.70;;;-0.90;99.90;;;;;;5054394;28;21010;-82
2022/12/12 12:54:56;;;;;;;0.30;0.30;;;-0.90;99.90;;;;;;5054968;28;20433;-82
2022/12/12 12:57:27;;;;;;;0.30;0.30;;;-0.90;99.90;;;;;;5054969;28;20521;-82
2022/12/12 12:59:58;;;;;;;0.30;0.30;;;-0.90;99.90;;;;;;5055100;28;20549;-80
2022/12/12 13:02:32;;;;;;;0.50;0.50;;;-0.90;99.90;;;;;;5054798;28;20546;-82
2022/12/12 13:05:07;;;;;;;0.47;0.47;;;-0.90;99.90;;;;;;5055094;28;20435;-82
2022/12/12 13:07:42;;;;;;;0.30;0.30;;;-0.90;99.90;;;;;;5054877;28;20438;-81
2022/12/12 13:10:17;;;;;;;0.30;0.30;;;-0.90;99.90;;;;;;5054856;28;20801;-82
2022/12/12 13:12:47;;;;;;;0.30;0.30;;;-0.90;99.90;;;;;;5055025;28;20993;-82
2022/12/12 13:15:21;;;;;;;0.30;0.20;;;-0.90;99.90;;;;;;5054613;28;20442;-82
2022/12/12 13:17:55;;;;;;;0.30;0.30;;;-0.80;99.90;;;;;;5054284;28;20450;-82
2022/12/12 13:20:25;;;;;;;0.30;0.30;;;-0.90;99.90;;;;;;5054164;28;20521;-82
2022/12/12 13:23:03;;;;;;;0.33;0.27;;;-0.90;99.90;;;;;;5054588;28;20476;-82